Time;durP1;ratioP1;P1;durP2;ratioP2;P2;SDS_P1;SDS_P2;PMS_P1;PMS_P2;Temp;Humidity;BMP_temperature;BMP_pressure;BME280_temperature;BME280_humidity;BME280_pressure;Samples;Min_cycle;Max_cycle;Signal;HPM_P1;HPM_P2
2024/02/01 00:01:39;;;;;;;218.97;61.70;;;;;;;;;;5080358;28;20443;-44
2024/02/01 00:04:05;;;;;;;219.50;62.90;;;;;;;;;;5088178;28;20428;-44
2024/02/01 00:06:31;;;;;;;217.97;61.20;;;;;;;;;;5077174;28;20184;-44
2024/02/01 00:08:57;;;;;;;218.67;60.77;;;;;;;;;;5076867;28;20422;-43
2024/02/01 00:11:23;;;;;;;220.07;60.47;;;;;;;;;;5084417;28;20517;-44
2024/02/01 00:13:49;;;;;;;217.37;58.50;;;;;;;;;;5079960;28;20471;-44
2024/02/01 00:16:24;;;;;;;217.87;59.17;;;;;;;;;;5084018;28;20501;-43
2024/02/01 00:18:50;;;;;;;216.88;58.20;;;;;;;;;;5077585;28;20765;-44
2024/02/01 00:21:17;;;;;;;216.90;58.33;;;;;;;;;;5092064;28;20683;-43
2024/02/01 00:23:43;;;;;;;218.18;58.67;;;;;;;;;;5090379;28;20178;-44
2024/02/01 00:26:09;;;;;;;217.60;58.97;;;;;;;;;;5087162;28;20175;-43
2024/02/01 00:28:35;;;;;;;216.52;57.85;;;;;;;;;;5081658;28;20180;-44
2024/02/01 00:31:01;;;;;;;220.80;61.00;;;;;;;;;;5084458;28;20218;-44
2024/02/01 00:33:28;;;;;;;220.63;61.70;;;;;;;;;;5086730;28;20515;-44
2024/02/01 00:35:54;;;;;;;217.00;58.17;;;;;;;;;;5087219;28;20403;-43
2024/02/01 00:38:20;;;;;;;217.87;57.27;;;;;;;;;;5091613;28;20184;-44
2024/02/01 00:40:46;;;;;;;218.67;58.30;;;;;;;;;;5090220;28;20473;-44
2024/02/01 00:43:12;;;;;;;217.57;57.37;;;;;;;;;;5084512;28;20418;-44
2024/02/01 00:45:38;;;;;;;217.43;57.60;;;;;;;;;;5088801;28;20421;-44
2024/02/01 00:48:04;;;;;;;216.70;56.63;;;;;;;;;;5082953;28;20187;-44
2024/02/01 00:50:30;;;;;;;214.68;55.30;;;;;;;;;;5086667;28;20406;-45
2024/02/01 00:52:56;;;;;;;217.37;57.47;;;;;;;;;;5081760;28;20219;-44
2024/02/01 00:55:22;;;;;;;216.88;56.20;;;;;;;;;;5085112;28;20497;-44
2024/02/01 00:57:48;;;;;;;216.13;55.17;;;;;;;;;;5095089;28;20263;-44
2024/02/01 01:00:14;;;;;;;216.73;57.50;;;;;;;;;;5085302;28;20479;-45
2024/02/01 01:02:40;;;;;;;217.52;56.65;;;;;;;;;;5089544;28;20434;-45
2024/02/01 01:05:06;;;;;;;215.90;56.17;;;;;;;;;;5086524;28;20590;-44
2024/02/01 01:07:32;;;;;;;217.55;56.50;;;;;;;;;;5083369;28;20840;-44
2024/02/01 01:09:58;;;;;;;216.33;55.30;;;;;;;;;;5083393;28;20175;-45
2024/02/01 01:12:24;;;;;;;214.77;55.40;;;;;;;;;;5090707;28;20842;-44
2024/02/01 01:14:50;;;;;;;217.77;57.00;;;;;;;;;;5083758;28;20459;-44
2024/02/01 01:17:16;;;;;;;214.47;54.10;;;;;;;;;;5091287;28;20501;-45
2024/02/01 01:19:42;;;;;;;213.97;53.13;;;;;;;;;;5088421;28;20820;-44
2024/02/01 01:22:08;;;;;;;215.17;54.50;;;;;;;;;;5086395;28;20452;-45
2024/02/01 01:24:34;;;;;;;214.47;53.57;;;;;;;;;;5085748;28;20416;-45
2024/02/01 01:27:00;;;;;;;217.37;56.53;;;;;;;;;;5087113;28;20412;-45
2024/02/01 01:29:26;;;;;;;217.50;57.08;;;;;;;;;;5085671;28;20412;-44
2024/02/01 01:31:52;;;;;;;216.25;53.97;;;;;;;;;;5086475;28;20210;-45
2024/02/01 01:34:18;;;;;;;214.23;54.10;;;;;;;;;;5090432;28;20286;-45
2024/02/01 01:36:44;;;;;;;215.37;54.77;;;;;;;;;;5088935;28;20419;-46
2024/02/01 01:39:10;;;;;;;215.67;55.20;;;;;;;;;;5085406;28;20785;-46
2024/02/01 01:41:36;;;;;;;213.07;52.80;;;;;;;;;;5086558;28;20430;-45
2024/02/01 01:44:02;;;;;;;215.25;55.22;;;;;;;;;;5084981;28;20424;-45
2024/02/01 01:46:30;;;;;;;213.93;53.80;;;;;;;;;;5085321;28;20169;-45
2024/02/01 01:48:56;;;;;;;213.20;53.10;;;;;;;;;;5086575;28;20249;-45
2024/02/01 01:51:22;;;;;;;214.83;55.57;;;;;;;;;;5088018;28;20684;-45
2024/02/01 01:53:49;;;;;;;216.52;55.92;;;;;;;;;;5074045;28;20480;-45
2024/02/01 01:56:16;;;;;;;213.82;53.17;;;;;;;;;;5076520;28;20643;-46
2024/02/01 01:58:42;;;;;;;216.55;55.65;;;;;;;;;;5078296;28;20176;-44
2024/02/01 02:01:09;;;;;;;217.23;54.95;;;;;;;;;;5082378;28;20203;-44
2024/02/01 02:03:37;;;;;;;218.63;56.72;;;;;;;;;;5076954;28;20213;-45
2024/02/01 02:06:03;;;;;;;213.70;53.35;;;;;;;;;;5086966;28;20210;-46
2024/02/01 02:08:29;;;;;;;215.30;54.70;;;;;;;;;;5085665;28;20601;-45
2024/02/01 02:10:55;;;;;;;213.97;54.17;;;;;;;;;;5085626;28;20279;-46
2024/02/01 02:13:21;;;;;;;213.73;53.03;;;;;;;;;;5080389;28;20572;-44
2024/02/01 02:15:47;;;;;;;215.27;55.47;;;;;;;;;;5076157;28;20180;-45
2024/02/01 02:18:13;;;;;;;216.50;55.72;;;;;;;;;;5084864;28;20400;-45
2024/02/01 02:20:40;;;;;;;216.10;56.17;;;;;;;;;;5086995;28;20172;-44
2024/02/01 02:23:07;;;;;;;213.13;53.80;;;;;;;;;;5089674;28;20241;-45
2024/02/01 02:25:33;;;;;;;214.45;56.80;;;;;;;;;;5081792;28;20177;-45
2024/02/01 02:27:59;;;;;;;214.77;54.60;;;;;;;;;;5089340;28;20602;-46
2024/02/01 02:30:25;;;;;;;212.83;54.40;;;;;;;;;;5076628;28;20233;-45
2024/02/01 02:32:51;;;;;;;213.97;54.27;;;;;;;;;;5080076;28;20439;-45
2024/02/01 02:35:17;;;;;;;215.57;55.17;;;;;;;;;;5084135;28;20395;-45
2024/02/01 02:37:50;;;;;;;216.05;56.17;;;;;;;;;;5086525;28;20406;-45
2024/02/01 02:40:18;;;;;;;214.75;54.53;;;;;;;;;;5083145;28;20181;-45
2024/02/01 02:42:44;;;;;;;218.38;57.45;;;;;;;;;;5085741;28;20197;-45
2024/02/01 02:45:10;;;;;;;214.45;54.85;;;;;;;;;;5088890;28;20175;-44
2024/02/01 02:47:36;;;;;;;215.40;54.63;;;;;;;;;;5086529;28;20188;-45
2024/02/01 02:50:05;;;;;;;214.02;54.45;;;;;;;;;;5083887;28;20643;-45
2024/02/01 02:52:32;;;;;;;213.38;53.78;;;;;;;;;;5085571;28;20189;-45
2024/02/01 02:54:58;;;;;;;215.32;55.70;;;;;;;;;;5083787;28;20189;-45
2024/02/01 02:57:24;;;;;;;213.97;53.73;;;;;;;;;;5084006;28;20164;-45
2024/02/01 02:59:49;;;;;;;214.60;55.53;;;;;;;;;;5084704;28;20496;-45
2024/02/01 03:02:15;;;;;;;212.37;53.30;;;;;;;;;;5082917;28;20433;-46
2024/02/01 03:04:41;;;;;;;211.63;53.43;;;;;;;;;;5086541;28;20445;-45
2024/02/01 03:07:08;;;;;;;213.93;54.07;;;;;;;;;;5082830;28;20418;-45
2024/02/01 03:09:35;;;;;;;213.18;54.03;;;;;;;;;;5085789;28;20948;-45
2024/02/01 03:12:06;;;;;;;213.68;53.90;;;;;;;;;;5083660;28;20595;-45
2024/02/01 03:14:32;;;;;;;212.57;53.65;;;;;;;;;;5083618;28;20633;-46
2024/02/01 03:16:58;;;;;;;214.03;54.50;;;;;;;;;;5083974;28;20206;-45
2024/02/01 03:19:24;;;;;;;212.87;53.87;;;;;;;;;;5088449;28;20411;-45
2024/02/01 03:21:55;;;;;;;213.70;54.33;;;;;;;;;;5080709;28;20427;-46
2024/02/01 03:24:21;;;;;;;217.73;59.08;;;;;;;;;;5076281;28;20495;-45
2024/02/01 03:26:47;;;;;;;211.37;53.80;;;;;;;;;;5087178;28;20252;-47
2024/02/01 03:29:16;;;;;;;212.33;54.87;;;;;;;;;;5083642;28;20418;-45
2024/02/01 03:31:43;;;;;;;213.57;55.65;;;;;;;;;;5083489;28;20450;-45
2024/02/01 03:34:15;;;;;;;214.80;56.60;;;;;;;;;;5083750;28;20759;-45
2024/02/01 03:36:41;;;;;;;213.38;54.55;;;;;;;;;;5083380;28;20173;-45
2024/02/01 03:39:23;;;;;;;214.02;55.03;;;;;;;;;;5083488;28;20172;-45
2024/02/01 03:41:50;;;;;;;214.73;55.88;;;;;;;;;;5084358;28;20201;-45
2024/02/01 03:44:16;;;;;;;211.05;54.22;;;;;;;;;;5091470;28;20189;-45
2024/02/01 03:46:42;;;;;;;214.85;55.03;;;;;;;;;;5090613;28;20209;-45
2024/02/01 03:49:08;;;;;;;213.27;54.07;;;;;;;;;;5081634;28;20278;-45
2024/02/01 03:51:36;;;;;;;212.95;54.83;;;;;;;;;;5089345;28;20427;-46
2024/02/01 03:54:11;;;;;;;215.90;56.45;;;;;;;;;;5081032;28;20196;-46
2024/02/01 03:56:37;;;;;;;213.20;53.90;;;;;;;;;;5075375;28;20779;-47
2024/02/01 03:59:04;;;;;;;215.88;55.60;;;;;;;;;;5075293;28;20180;-47
2024/02/01 04:01:30;;;;;;;213.85;54.97;;;;;;;;;;5072927;28;20196;-46
2024/02/01 04:03:56;;;;;;;215.02;55.58;;;;;;;;;;5080351;28;20189;-45
2024/02/01 04:06:23;;;;;;;214.93;56.50;;;;;;;;;;5088174;28;20212;-45
2024/02/01 04:08:49;;;;;;;213.52;54.15;;;;;;;;;;5079228;28;20561;-45
2024/02/01 04:11:15;;;;;;;214.65;56.05;;;;;;;;;;5088756;28;20207;-45
2024/02/01 04:13:41;;;;;;;213.57;54.80;;;;;;;;;;5087411;28;20284;-45
2024/02/01 04:16:07;;;;;;;214.07;55.40;;;;;;;;;;5087558;28;20404;-45
2024/02/01 04:18:33;;;;;;;210.25;53.38;;;;;;;;;;5082958;28;20458;-45
2024/02/01 04:21:00;;;;;;;214.48;56.70;;;;;;;;;;5086021;28;20284;-45
2024/02/01 04:23:26;;;;;;;216.45;58.20;;;;;;;;;;5091050;28;20598;-45
2024/02/01 04:25:52;;;;;;;216.00;57.10;;;;;;;;;;5091209;28;20233;-45
2024/02/01 04:28:18;;;;;;;215.37;56.97;;;;;;;;;;5086868;28;20895;-46
2024/02/01 04:30:51;;;;;;;214.65;55.97;;;;;;;;;;5087336;28;20553;-45
2024/02/01 04:33:25;;;;;;;215.73;55.47;;;;;;;;;;5077323;28;20693;-46
2024/02/01 04:35:51;;;;;;;214.30;55.90;;;;;;;;;;5082812;28;20218;-45
2024/02/01 04:38:17;;;;;;;215.40;55.83;;;;;;;;;;5086612;28;20204;-46
2024/02/01 04:40:43;;;;;;;214.32;57.03;;;;;;;;;;5088260;28;20399;-45
2024/02/01 04:43:10;;;;;;;213.17;55.20;;;;;;;;;;5091357;28;20532;-46
2024/02/01 04:45:36;;;;;;;214.90;55.67;;;;;;;;;;5082917;28;20404;-45
2024/02/01 04:48:03;;;;;;;214.25;55.85;;;;;;;;;;5091388;28;20180;-45
2024/02/01 04:50:29;;;;;;;213.43;54.65;;;;;;;;;;5087642;28;20169;-45
2024/02/01 04:52:55;;;;;;;216.25;57.58;;;;;;;;;;5086223;28;20204;-45
2024/02/01 04:55:22;;;;;;;213.70;55.63;;;;;;;;;;5086082;28;20175;-45
2024/02/01 04:57:48;;;;;;;215.70;58.60;;;;;;;;;;5087518;28;20410;-45
2024/02/01 05:00:16;;;;;;;213.67;56.33;;;;;;;;;;5085214;28;20552;-45
2024/02/01 05:02:42;;;;;;;215.57;58.00;;;;;;;;;;5088002;28;20511;-46
2024/02/01 05:05:10;;;;;;;215.48;56.65;;;;;;;;;;5090637;28;20252;-46
2024/02/01 05:07:36;;;;;;;213.23;55.92;;;;;;;;;;5088294;28;20377;-44
2024/02/01 05:10:03;;;;;;;213.30;55.60;;;;;;;;;;5086135;28;20182;-46
2024/02/01 05:12:29;;;;;;;212.05;55.35;;;;;;;;;;5086178;28;20283;-45
2024/02/01 05:14:55;;;;;;;215.57;55.83;;;;;;;;;;5085581;28;20315;-46
2024/02/01 05:17:21;;;;;;;214.98;55.75;;;;;;;;;;5086118;28;20188;-46
2024/02/01 05:19:47;;;;;;;216.80;58.10;;;;;;;;;;5086868;28;20572;-46
2024/02/01 05:22:13;;;;;;;212.77;54.78;;;;;;;;;;5090677;28;20430;-46
2024/02/01 05:24:39;;;;;;;213.43;55.87;;;;;;;;;;5087726;28;20177;-45
2024/02/01 05:27:08;;;;;;;213.70;56.10;;;;;;;;;;5084000;28;20412;-45
2024/02/01 05:29:39;;;;;;;214.65;56.38;;;;;;;;;;5086964;28;20422;-46
2024/02/01 05:32:08;;;;;;;215.25;57.15;;;;;;;;;;5085263;28;20203;-45
2024/02/01 05:34:34;;;;;;;213.55;56.10;;;;;;;;;;5084692;28;20235;-45
2024/02/01 05:37:01;;;;;;;213.40;55.90;;;;;;;;;;5085242;28;20525;-46
2024/02/01 05:39:27;;;;;;;213.43;56.22;;;;;;;;;;5089098;28;20650;-46
2024/02/01 05:41:53;;;;;;;214.90;57.97;;;;;;;;;;5081356;28;20818;-45
2024/02/01 05:44:20;;;;;;;214.57;57.50;;;;;;;;;;5089626;28;20277;-45
2024/02/01 05:46:47;;;;;;;216.25;58.72;;;;;;;;;;5088304;28;20461;-46
2024/02/01 05:49:13;;;;;;;215.27;58.10;;;;;;;;;;5083853;28;20250;-44
2024/02/01 05:51:39;;;;;;;214.27;56.80;;;;;;;;;;5085067;28;20699;-45
2024/02/01 05:54:05;;;;;;;216.57;57.08;;;;;;;;;;5079573;28;20285;-45
2024/02/01 05:56:31;;;;;;;214.25;55.85;;;;;;;;;;5073181;28;20599;-45
2024/02/01 05:58:57;;;;;;;215.27;57.42;;;;;;;;;;5079073;28;20181;-45
2024/02/01 06:01:24;;;;;;;213.00;55.92;;;;;;;;;;5076280;28;20212;-45
2024/02/01 06:03:50;;;;;;;216.85;55.50;;;;;;;;;;5088619;28;20176;-45
2024/02/01 06:06:16;;;;;;;215.87;55.47;;;;;;;;;;5077425;28;20199;-45
2024/02/01 06:08:42;;;;;;;216.13;55.70;;;;;;;;;;5083315;28;20511;-45
2024/02/01 06:11:07;;;;;;;215.47;55.57;;;;;;;;;;5074932;28;20443;-45
2024/02/01 06:13:35;;;;;;;217.60;56.00;;;;;;;;;;5081297;28;20459;-45
2024/02/01 06:16:01;;;;;;;214.13;54.03;;;;;;;;;;5084916;28;20488;-46
2024/02/01 06:18:27;;;;;;;216.57;55.25;;;;;;;;;;5088513;28;20170;-46
2024/02/01 06:20:53;;;;;;;216.03;55.00;;;;;;;;;;5089176;28;20517;-45
2024/02/01 06:23:19;;;;;;;221.00;60.00;;;;;;;;;;5078516;28;20435;-45
2024/02/01 06:25:45;;;;;;;215.33;54.87;;;;;;;;;;5081436;28;20426;-44
2024/02/01 06:28:12;;;;;;;214.90;53.53;;;;;;;;;;5080996;28;20414;-45
2024/02/01 06:30:38;;;;;;;214.10;53.55;;;;;;;;;;5081782;28;20190;-45
2024/02/01 06:33:04;;;;;;;217.25;57.38;;;;;;;;;;5077684;28;20186;-45
2024/02/01 06:35:33;;;;;;;214.05;54.47;;;;;;;;;;5085781;28;20173;-45
2024/02/01 06:38:15;;;;;;;216.48;56.30;;;;;;;;;;5084497;28;20181;-45
2024/02/01 06:43:31;;;;;;;217.35;56.88;;;;;;;;;;5084215;28;20747;-45
2024/02/01 06:46:08;;;;;;;213.77;53.17;;;;;;;;;;5084592;28;20190;-45
2024/02/01 06:48:46;;;;;;;214.57;55.05;;;;;;;;;;5084149;28;20217;-45
2024/02/01 06:51:25;;;;;;;215.40;54.53;;;;;;;;;;5084135;28;20271;-45
2024/02/01 06:54:05;;;;;;;215.55;54.03;;;;;;;;;;5084421;28;20245;-45
2024/02/01 06:56:52;;;;;;;216.60;54.10;;;;;;;;;;5073834;28;20168;-45
2024/02/01 06:59:33;;;;;;;211.18;51.75;;;;;;;;;;5083506;28;20528;-45
2024/02/01 07:02:24;;;;;;;216.50;54.97;;;;;;;;;;5078097;28;20219;-44
2024/02/01 07:04:53;;;;;;;213.38;53.85;;;;;;;;;;5076115;28;20176;-45
2024/02/01 07:07:25;;;;;;;212.35;52.53;;;;;;;;;;5088629;28;20200;-45
2024/02/01 07:09:58;;;;;;;214.00;55.00;;;;;;;;;;5080643;28;20226;-44
2024/02/01 07:12:42;;;;;;;216.57;55.80;;;;;;;;;;5051892;28;20188;-45
2024/02/01 07:20:50;;;;;;;214.32;55.45;;;;;;;;;;5074601;28;20206;-44
2024/02/01 07:25:49;;;;;;;213.98;54.90;;;;;;;;;;5089731;28;20231;-45
2024/02/01 07:58:38;;;;;;;214.82;60.65;;;;;;;;;;5082037;28;20280;-44
2024/02/01 08:01:14;;;;;;;215.73;58.28;;;;;;;;;;5097392;28;20559;-44
2024/02/01 08:03:56;;;;;;;215.20;58.60;;;;;;;;;;5081058;28;20563;-44
2024/02/01 08:09:14;;;;;;;215.90;57.50;;;;;;;;;;5085749;28;20185;-45
2024/02/01 08:11:43;;;;;;;215.07;56.65;;;;;;;;;;5087691;28;20568;-45
2024/02/01 08:14:13;;;;;;;215.38;56.50;;;;;;;;;;5078271;28;20678;-44
2024/02/01 08:16:39;;;;;;;216.23;56.90;;;;;;;;;;5077868;28;20178;-44
2024/02/01 08:19:06;;;;;;;219.90;59.70;;;;;;;;;;5080704;28;20167;-43
2024/02/01 08:21:38;;;;;;;214.98;56.22;;;;;;;;;;5085573;28;20236;-45
2024/02/01 08:24:06;;;;;;;214.02;55.65;;;;;;;;;;5087835;28;20213;-44
2024/02/01 08:26:37;;;;;;;217.25;57.88;;;;;;;;;;5084596;28;20614;-45
2024/02/01 08:29:03;;;;;;;214.45;55.33;;;;;;;;;;5084409;28;20187;-45
2024/02/01 08:31:36;;;;;;;214.18;54.83;;;;;;;;;;5088256;28;20223;-44
2024/02/01 08:34:02;;;;;;;215.70;57.65;;;;;;;;;;5086550;28;20209;-44
2024/02/01 08:36:28;;;;;;;216.43;56.95;;;;;;;;;;5086603;28;20162;-45
2024/02/01 08:38:55;;;;;;;218.03;57.80;;;;;;;;;;5086899;28;20658;-45
2024/02/01 08:41:21;;;;;;;216.95;57.65;;;;;;;;;;5087683;28;20780;-45
2024/02/01 08:43:47;;;;;;;220.50;59.03;;;;;;;;;;5090414;28;20649;-44
2024/02/01 08:46:13;;;;;;;220.80;58.95;;;;;;;;;;5085813;28;20180;-44
2024/02/01 08:48:39;;;;;;;221.37;60.47;;;;;;;;;;5085358;28;20238;-45
2024/02/01 08:51:05;;;;;;;224.47;63.13;;;;;;;;;;5090267;28;20438;-45
2024/02/01 08:53:35;;;;;;;228.60;66.60;;;;;;;;;;5088391;28;20823;-45
2024/02/01 08:56:03;;;;;;;224.23;64.20;;;;;;;;;;5087998;28;20550;-46
2024/02/01 08:58:29;;;;;;;226.00;65.30;;;;;;;;;;5091857;28;20166;-45
2024/02/01 09:00:55;;;;;;;227.95;66.63;;;;;;;;;;5085727;28;20192;-45
2024/02/01 09:03:29;;;;;;;228.35;66.57;;;;;;;;;;5092860;28;20170;-45
2024/02/01 09:05:56;;;;;;;230.30;67.80;;;;;;;;;;5093211;28;20546;-46
2024/02/01 09:08:35;;;;;;;230.07;67.78;;;;;;;;;;5088461;28;20174;-45
2024/02/01 09:11:09;;;;;;;226.80;66.03;;;;;;;;;;5088005;28;20197;-47
2024/02/01 09:13:35;;;;;;;231.32;71.50;;;;;;;;;;5088933;28;20192;-45
2024/02/01 09:16:02;;;;;;;227.00;66.87;;;;;;;;;;5087013;28;20231;-45
2024/02/01 09:18:28;;;;;;;228.65;69.13;;;;;;;;;;5087614;28;20487;-45
2024/02/01 09:20:54;;;;;;;230.13;71.50;;;;;;;;;;5088132;28;20223;-46
2024/02/01 09:23:22;;;;;;;233.32;72.30;;;;;;;;;;5086128;28;20180;-46
2024/02/01 09:25:48;;;;;;;230.40;69.15;;;;;;;;;;5091759;28;20181;-46
2024/02/01 09:28:14;;;;;;;232.55;70.90;;;;;;;;;;5086153;28;20178;-45
2024/02/01 09:30:45;;;;;;;232.65;69.90;;;;;;;;;;5090424;28;20232;-45
2024/02/01 09:33:21;;;;;;;234.00;72.30;;;;;;;;;;5087755;28;20715;-46
2024/02/01 09:35:47;;;;;;;232.07;72.25;;;;;;;;;;5087865;28;20182;-45
2024/02/01 09:38:13;;;;;;;235.00;74.35;;;;;;;;;;5087759;28;20188;-47
2024/02/01 09:40:43;;;;;;;234.13;74.28;;;;;;;;;;5088949;28;20173;-46
2024/02/01 09:43:22;;;;;;;233.25;72.50;;;;;;;;;;5087026;28;20168;-45
2024/02/01 09:45:51;;;;;;;236.32;77.32;;;;;;;;;;5087020;28;20170;-45
2024/02/01 09:48:18;;;;;;;230.73;71.80;;;;;;;;;;5089735;28;20192;-45
2024/02/01 09:50:54;;;;;;;232.30;73.88;;;;;;;;;;5088382;28;20218;-45
2024/02/01 09:53:21;;;;;;;234.23;75.35;;;;;;;;;;5088577;28;20266;-45
2024/02/01 09:55:48;;;;;;;229.05;69.80;;;;;;;;;;5083338;28;20177;-45
2024/02/01 09:58:14;;;;;;;232.55;71.88;;;;;;;;;;5095107;28;20173;-45
2024/02/01 10:00:41;;;;;;;233.00;72.82;;;;;;;;;;5091727;28;20526;-45
2024/02/01 10:03:07;;;;;;;232.17;75.03;;;;;;;;;;5095207;28;20170;-45
2024/02/01 10:05:34;;;;;;;228.75;68.53;;;;;;;;;;5095012;28;20429;-45
2024/02/01 10:08:00;;;;;;;234.65;75.38;;;;;;;;;;5095643;28;20263;-45
2024/02/01 10:10:26;;;;;;;238.47;77.87;;;;;;;;;;5096130;28;20201;-45
2024/02/01 10:12:55;;;;;;;237.47;76.47;;;;;;;;;;5096794;28;20444;-46
2024/02/01 10:15:27;;;;;;;238.43;81.30;;;;;;;;;;5096406;28;20980;-45
2024/02/01 10:17:53;;;;;;;240.45;78.90;;;;;;;;;;5096535;28;20214;-45
2024/02/01 10:20:39;;;;;;;236.95;78.00;;;;;;;;;;5096288;28;20197;-45
2024/02/01 10:23:05;;;;;;;238.30;79.18;;;;;;;;;;5096374;28;20667;-45
2024/02/01 10:25:42;;;;;;;236.30;77.88;;;;;;;;;;5095778;28;20256;-45
2024/02/01 10:28:08;;;;;;;234.52;77.80;;;;;;;;;;5095484;28;20180;-45
2024/02/01 10:30:42;;;;;;;236.63;76.55;;;;;;;;;;5059009;28;20174;-45
2024/02/01 10:33:09;;;;;;;236.25;78.05;;;;;;;;;;5090794;28;20266;-45
2024/02/01 10:35:35;;;;;;;239.27;81.07;;;;;;;;;;5088819;28;20204;-45
2024/02/01 10:38:11;;;;;;;241.00;83.93;;;;;;;;;;5088077;28;20252;-46
2024/02/01 10:40:40;;;;;;;236.02;79.78;;;;;;;;;;5083184;28;20187;-45
2024/02/01 10:43:07;;;;;;;241.10;83.50;;;;;;;;;;5096278;28;20173;-45
2024/02/01 10:45:36;;;;;;;237.45;78.65;;;;;;;;;;5095639;28;20536;-46
2024/02/01 10:48:07;;;;;;;240.93;82.00;;;;;;;;;;5096653;28;20168;-45
2024/02/01 10:50:34;;;;;;;241.07;82.90;;;;;;;;;;5076153;28;20531;-47
2024/02/01 10:53:02;;;;;;;237.45;79.35;;;;;;;;;;5094388;28;20204;-48
2024/02/01 10:55:28;;;;;;;241.40;81.45;;;;;;;;;;5090724;28;20174;-45
2024/02/01 10:57:59;;;;;;;246.83;87.23;;;;;;;;;;5090777;28;20170;-47
2024/02/01 11:00:27;;;;;;;243.90;84.45;;;;;;;;;;5088036;28;20441;-47
2024/02/01 11:02:53;;;;;;;245.37;85.10;;;;;;;;;;5085544;28;20201;-48
2024/02/01 11:05:19;;;;;;;249.00;86.10;;;;;;;;;;5086711;28;20415;-48
2024/02/01 11:07:44;;;;;;;246.80;86.17;;;;;;;;;;5087847;28;20869;-46
2024/02/01 11:10:14;;;;;;;245.23;83.93;;;;;;;;;;5087761;28;20748;-48
2024/02/01 11:12:40;;;;;;;243.43;81.33;;;;;;;;;;5090115;28;20783;-47
2024/02/01 11:15:16;;;;;;;246.73;88.63;;;;;;;;;;5092757;28;20458;-46
2024/02/01 11:17:43;;;;;;;241.98;81.07;;;;;;;;;;5091027;28;20763;-45
2024/02/01 11:20:12;;;;;;;241.63;79.47;;;;;;;;;;5086439;28;20666;-45
2024/02/01 11:22:41;;;;;;;239.73;75.45;;;;;;;;;;5088545;28;20190;-45
2024/02/01 11:25:08;;;;;;;240.57;76.30;;;;;;;;;;5085470;28;20770;-46
2024/02/01 11:27:36;;;;;;;241.57;80.45;;;;;;;;;;5086214;28;20181;-45
2024/02/01 11:30:24;;;;;;;238.65;76.45;;;;;;;;;;5086317;28;20165;-45
2024/02/01 11:32:50;;;;;;;237.70;75.13;;;;;;;;;;5086404;28;20216;-46
2024/02/01 11:35:17;;;;;;;242.50;79.78;;;;;;;;;;5085115;28;20194;-46
2024/02/01 11:37:43;;;;;;;236.55;74.60;;;;;;;;;;5084718;28;20180;-45
2024/02/01 11:40:15;;;;;;;240.15;79.03;;;;;;;;;;5091106;28;20234;-46
2024/02/01 11:42:41;;;;;;;243.00;79.90;;;;;;;;;;5090290;28;20200;-47
2024/02/01 11:45:10;;;;;;;242.93;79.53;;;;;;;;;;5086918;28;20193;-46
2024/02/01 11:47:36;;;;;;;240.73;78.18;;;;;;;;;;5089282;28;20180;-47
2024/02/01 11:50:03;;;;;;;242.73;79.30;;;;;;;;;;5090613;28;20175;-47
2024/02/01 11:52:43;;;;;;;244.17;81.60;;;;;;;;;;5086768;28;20411;-45
2024/02/01 11:55:09;;;;;;;237.80;76.38;;;;;;;;;;5084828;28;20477;-45
2024/02/01 11:57:35;;;;;;;240.00;78.73;;;;;;;;;;5087319;28;20176;-44
2024/02/01 12:00:12;;;;;;;238.27;79.53;;;;;;;;;;5089166;28;20903;-45
2024/02/01 12:02:38;;;;;;;234.40;74.53;;;;;;;;;;5081692;28;20427;-44
2024/02/01 12:05:07;;;;;;;236.63;76.90;;;;;;;;;;5092259;28;20178;-45
2024/02/01 12:07:33;;;;;;;234.35;76.95;;;;;;;;;;5090771;28;20262;-44
2024/02/01 12:10:10;;;;;;;233.85;76.63;;;;;;;;;;5088926;28;20250;-45
2024/02/01 12:12:36;;;;;;;230.27;71.40;;;;;;;;;;5089661;28;20199;-44
2024/02/01 12:15:04;;;;;;;230.88;72.47;;;;;;;;;;5089220;28;20558;-44
2024/02/01 12:17:34;;;;;;;228.90;71.03;;;;;;;;;;5089170;28;20162;-44
2024/02/01 12:20:02;;;;;;;228.45;72.93;;;;;;;;;;5089179;28;20272;-44
2024/02/01 12:22:29;;;;;;;227.57;70.72;;;;;;;;;;5092546;28;20193;-43
2024/02/01 12:24:56;;;;;;;230.48;72.35;;;;;;;;;;5093201;28;20181;-44
2024/02/01 12:27:22;;;;;;;229.70;71.25;;;;;;;;;;5088487;28;20176;-44
2024/02/01 12:29:49;;;;;;;231.77;73.40;;;;;;;;;;5089176;28;20182;-45
2024/02/01 12:32:15;;;;;;;229.05;71.88;;;;;;;;;;5088477;28;20194;-45
2024/02/01 12:34:42;;;;;;;231.63;72.78;;;;;;;;;;5088186;28;20239;-44
2024/02/01 12:37:11;;;;;;;229.02;71.78;;;;;;;;;;5087999;28;20583;-45
2024/02/01 12:39:40;;;;;;;234.50;74.97;;;;;;;;;;5090829;28;20206;-45
2024/02/01 12:42:07;;;;;;;233.52;73.75;;;;;;;;;;5092901;28;20195;-44
2024/02/01 12:44:37;;;;;;;233.30;74.20;;;;;;;;;;5084101;28;20238;-44
2024/02/01 12:47:06;;;;;;;237.00;77.20;;;;;;;;;;5091531;28;20554;-44
2024/02/01 12:49:32;;;;;;;236.45;77.03;;;;;;;;;;5079761;28;20170;-45
2024/02/01 12:52:04;;;;;;;237.75;77.65;;;;;;;;;;5089497;28;20735;-45
2024/02/01 12:54:34;;;;;;;238.40;79.13;;;;;;;;;;5085083;28;20233;-45
2024/02/01 12:57:00;;;;;;;240.80;80.13;;;;;;;;;;5086629;28;20179;-45
2024/02/01 12:59:26;;;;;;;240.77;80.10;;;;;;;;;;5086994;28;20581;-45
2024/02/01 13:01:53;;;;;;;240.65;79.47;;;;;;;;;;5087068;28;20209;-45
2024/02/01 13:04:21;;;;;;;242.73;80.38;;;;;;;;;;5090667;28;20170;-46
2024/02/01 13:06:47;;;;;;;241.43;78.78;;;;;;;;;;5091359;28;20576;-45
2024/02/01 13:09:28;;;;;;;241.50;81.55;;;;;;;;;;5086913;28;20211;-44
2024/02/01 13:11:54;;;;;;;239.25;79.00;;;;;;;;;;5087456;28;20197;-44
2024/02/01 13:14:20;;;;;;;238.17;81.13;;;;;;;;;;5086883;28;20270;-44
2024/02/01 13:16:47;;;;;;;236.20;77.17;;;;;;;;;;5085759;28;20407;-44
2024/02/01 13:19:13;;;;;;;234.50;74.85;;;;;;;;;;5087094;28;20433;-46
2024/02/01 13:21:39;;;;;;;237.18;77.35;;;;;;;;;;5090087;28;20560;-45
2024/02/01 13:24:06;;;;;;;236.47;79.30;;;;;;;;;;5091769;28;20210;-46
2024/02/01 13:26:35;;;;;;;232.98;72.78;;;;;;;;;;5084119;28;20775;-45
2024/02/01 13:29:01;;;;;;;233.98;74.40;;;;;;;;;;5091885;28;20210;-45
2024/02/01 13:31:27;;;;;;;236.27;77.07;;;;;;;;;;5088022;28;20248;-45
2024/02/01 13:33:59;;;;;;;237.50;76.87;;;;;;;;;;5086786;28;20456;-46
2024/02/01 13:36:25;;;;;;;239.23;79.10;;;;;;;;;;5079131;28;20424;-46
2024/02/01 13:38:52;;;;;;;235.07;76.20;;;;;;;;;;5087900;28;20632;-46
2024/02/01 13:41:18;;;;;;;236.63;76.30;;;;;;;;;;5085852;28;20268;-47
2024/02/01 13:43:44;;;;;;;236.88;78.97;;;;;;;;;;5088321;28;20460;-46
2024/02/01 13:46:10;;;;;;;236.57;78.07;;;;;;;;;;5091420;28;20181;-45
2024/02/01 13:48:37;;;;;;;218.13;73.33;;;;;;;;;;5080838;28;20428;-45
2024/02/01 13:51:08;;;;;;;233.95;74.80;;;;;;;;;;5073476;28;20448;-45
2024/02/01 13:53:34;;;;;;;243.43;86.18;;;;;;;;;;5086841;28;20200;-46
2024/02/01 13:56:00;;;;;;;232.37;73.37;;;;;;;;;;5079441;28;20545;-44
2024/02/01 13:58:26;;;;;;;233.97;75.33;;;;;;;;;;5087354;28;20408;-45
2024/02/01 14:00:52;;;;;;;235.80;76.70;;;;;;;;;;5086795;28;20431;-44
2024/02/01 14:03:18;;;;;;;235.90;78.47;;;;;;;;;;5090839;28;20407;-44
2024/02/01 14:05:44;;;;;;;223.18;71.20;;;;;;;;;;5089600;28;20178;-43
2024/02/01 14:08:10;;;;;;;232.40;70.88;;;;;;;;;;5084929;28;20184;-44
2024/02/01 14:10:36;;;;;;;234.75;75.95;;;;;;;;;;5089166;28;20241;-44
2024/02/01 14:13:02;;;;;;;230.13;71.33;;;;;;;;;;5086053;28;20194;-46
2024/02/01 14:15:28;;;;;;;231.53;73.17;;;;;;;;;;5086367;28;20417;-44
2024/02/01 14:17:54;;;;;;;229.83;71.10;;;;;;;;;;5087006;28;20435;-44
2024/02/01 14:20:20;;;;;;;231.17;72.40;;;;;;;;;;5089222;28;20788;-44
2024/02/01 14:22:46;;;;;;;230.67;73.37;;;;;;;;;;5082169;28;20527;-46
2024/02/01 14:25:12;;;;;;;231.27;71.90;;;;;;;;;;5091398;28;20423;-44
2024/02/01 14:27:39;;;;;;;231.20;73.47;;;;;;;;;;5088095;28;20411;-44
2024/02/01 14:30:10;;;;;;;236.43;77.97;;;;;;;;;;5080950;28;20665;-44
2024/02/01 14:32:40;;;;;;;228.13;69.40;;;;;;;;;;5078533;28;20221;-44
2024/02/01 14:35:07;;;;;;;232.25;75.13;;;;;;;;;;5093932;28;20196;-46
2024/02/01 14:37:33;;;;;;;229.75;71.15;;;;;;;;;;5094424;28;20697;-45
2024/02/01 14:40:00;;;;;;;232.27;74.70;;;;;;;;;;5094517;28;20640;-44
2024/02/01 14:42:26;;;;;;;228.13;72.15;;;;;;;;;;5094060;28;20200;-45
2024/02/01 14:44:52;;;;;;;229.80;75.10;;;;;;;;;;5093688;28;20177;-46
2024/02/01 14:47:18;;;;;;;230.63;73.37;;;;;;;;;;5094338;28;20409;-44
2024/02/01 14:49:44;;;;;;;231.57;74.87;;;;;;;;;;5087083;28;20460;-44
2024/02/01 14:52:15;;;;;;;230.17;73.63;;;;;;;;;;5077480;28;20461;-44